Rosinton, Alabama
Current Conditions -  °F | °C
As of 1:35 PM on Tuesday 21 Oct 2014 (Local Time) from KCQF Reporting Station
Clear Clear  
Wind Chill: 77°   Ceiling: Unl
Heat Index: 78°   Visibility: 10mi
Dew Point: 50°   Wind: 8mph
Humidity: 39%   Direction: 360°N
Pressure: 29.99"   Gusts: NA
Location:  30.6097°N, 87.6111°W
Report Text: KCQF 211835Z AUTO 36007KT 10SM CLR 25/10 A2999 RMK AO2
Loading
Personal Weather Stations






























Interactive Weather Map
Tropical Storm Tracking
New forecast layout! Learn more

10-Day Weather Forecast

Advertisements
Track Severe Weather on mobile